Whitworth, United Kingdom
Current Conditions -  °F | °C
As of 10:20 AM on Thursday 29 Jan 2015 (Local Time) from EGCC Reporting Station
Moderate Snow Moderate Snow  
Wind Chill: 25°   Ceiling: 100
Heat Index: 32°   Visibility: 0.4mi
Dew Point: 32°   Wind: 8mph
Humidity: 100%   Direction: 260°W
Pressure: 28.94"   Gusts: NA
Location:  53.66°N, 2.18°W
Report Text: EGCC 291020Z 26007KT 0650 R23R/0800 SN BKN001TCU OVC005 00/00 Q0980 R/SNOCLO BECMG 1200
Loading
Personal Weather Stations






























Interactive Weather Map New forecast layout! Learn more

10-Day Weather Forecast

Advertisements
Track Severe Weather on mobile